Erving, Massachusetts
Current Conditions -  °F | °C
As of 9:52 AM on Wednesday 22 Oct 2014 (Local Time) from KORE Reporting Station
Overcast Overcast  
Wind Chill: 50°   Ceiling: 1000
Heat Index: 50°   Visibility: 8mi
Dew Point: 47°   Wind: 10mph
Humidity: 89%   Direction: 20°NNE
Pressure: 30.05"   Gusts: NA
Location:  42.6°N, 72.4°W
Report Text: KORE 221352Z AUTO 02009KT 8SM OVC010 10/08 A3005 RMK AO2 CIG 008V012 SLP180 T01000083
Loading
Personal Weather Stations






























Interactive Weather Map
Tropical Storm Tracking
New forecast layout! Learn more

10-Day Weather Forecast

Advertisements
Track Severe Weather on mobile